Time;durP1;ratioP1;P1;durP2;ratioP2;P2;SDS_P1;SDS_P2;PMS_P1;PMS_P2;Temp;Humidity;BMP_temperature;BMP_pressure;BME280_temperature;BME280_humidity;BME280_pressure;Samples;Min_cycle;Max_cycle;Signal;HPM_P1;HPM_P2
2022/09/09 00:00:25;;;;;;;1.23;0.60;;;15.20;99.90;;;;;;4960091;28;20458;-80
2022/09/09 00:03:17;;;;;;;1.20;0.60;;;15.20;99.90;;;;;;4963967;28;20019;-81
2022/09/09 00:06:07;;;;;;;0.77;0.47;;;15.20;99.90;;;;;;4965035;28;20091;-80
2022/09/09 00:08:54;;;;;;;3.78;0.63;;;15.20;99.90;;;;;;4967237;28;20035;-78
2022/09/09 00:11:27;;;;;;;1.08;0.57;;;15.10;99.90;;;;;;4972704;28;20027;-80
2022/09/09 00:13:55;;;;;;;3.53;0.70;;;15.10;99.90;;;;;;4957531;28;20047;-80
2022/09/09 00:16:27;;;;;;;1.10;0.45;;;15.20;99.90;;;;;;4960630;28;20019;-81
2022/09/09 00:19:03;;;;;;;1.50;0.77;;;15.10;99.90;;;;;;4958714;28;20134;-80
2022/09/09 00:21:35;;;;;;;0.60;0.60;;;15.10;99.90;;;;;;4970970;28;20023;-80
2022/09/09 00:24:08;;;;;;;3.23;0.70;;;15.10;99.90;;;;;;4958365;28;20364;-79
2022/09/09 00:26:49;;;;;;;0.40;0.40;;;15.20;99.90;;;;;;4960780;28;20035;-79
2022/09/09 00:29:21;;;;;;;0.50;0.50;;;15.10;99.90;;;;;;4967385;28;20032;-79
2022/09/09 00:31:47;;;;;;;1.85;0.60;;;15.10;99.90;;;;;;4962841;28;20074;-80
2022/09/09 00:34:22;;;;;;;1.27;0.47;;;15.20;99.90;;;;;;4958036;28;20465;-80
2022/09/09 00:36:52;;;;;;;0.70;0.40;;;15.20;99.90;;;;;;4963491;28;20035;-80
2022/09/09 00:39:41;;;;;;;0.60;0.35;;;15.10;99.90;;;;;;4960829;28;20090;-79
2022/09/09 00:42:41;;;;;;;0.40;0.40;;;15.10;99.90;;;;;;4961191;28;20046;-77
2022/09/09 00:45:27;;;;;;;0.90;0.40;;;15.20;99.90;;;;;;4964477;28;20117;-81
2022/09/09 00:47:53;;;;;;;0.50;0.50;;;15.20;99.90;;;;;;4962463;28;20130;-80
2022/09/09 00:50:40;;;;;;;1.67;0.70;;;15.10;99.90;;;;;;4961294;28;20023;-80
2022/09/09 00:53:37;;;;;;;2.08;0.88;;;15.10;99.90;;;;;;4964400;28;20039;-79
2022/09/09 00:56:05;;;;;;;0.93;0.52;;;15.20;99.90;;;;;;4959832;28;20050;-80
2022/09/09 00:58:32;;;;;;;1.23;0.60;;;15.20;99.90;;;;;;4962921;28;20035;-80
2022/09/09 01:01:06;;;;;;;1.05;0.40;;;15.20;99.90;;;;;;4958746;28;20453;-82
2022/09/09 01:04:03;;;;;;;0.70;0.63;;;15.20;99.90;;;;;;4967418;28;20339;-81
2022/09/09 01:06:38;;;;;;;0.93;0.60;;;15.20;99.90;;;;;;4963424;28;20053;-84
2022/09/09 01:09:12;;;;;;;1.83;0.70;;;15.20;99.90;;;;;;4969351;28;20038;-80
2022/09/09 01:12:01;;;;;;;0.50;0.50;;;15.30;99.90;;;;;;4965616;28;21207;-81
2022/09/09 01:14:36;;;;;;;0.70;0.70;;;15.20;99.90;;;;;;4975862;28;20039;-79
2022/09/09 01:17:12;;;;;;;0.80;0.80;;;15.30;99.90;;;;;;4969699;28;20452;-78
2022/09/09 01:19:50;;;;;;;5.85;0.60;;;15.30;99.90;;;;;;4972075;28;20027;-79
2022/09/09 01:22:29;;;;;;;2.70;0.50;;;15.30;99.90;;;;;;4968569;28;20146;-80
2022/09/09 01:25:38;;;;;;;0.90;0.90;;;15.30;99.90;;;;;;4963262;28;20478;-81
2022/09/09 01:28:11;;;;;;;1.77;0.70;;;15.30;99.90;;;;;;4961134;28;20031;-80
2022/09/09 01:30:40;;;;;;;1.92;0.70;;;15.30;99.90;;;;;;4972848;28;20062;-80
2022/09/09 01:33:13;;;;;;;0.50;0.50;;;15.30;99.90;;;;;;4957849;28;20131;-80
2022/09/09 01:35:38;;;;;;;;;;;15.30;99.90;;;;;;4956406;28;20045;-79
2022/09/09 01:38:05;;;;;;;1.00;0.85;;;15.30;99.90;;;;;;4962286;28;20320;-80
2022/09/09 01:40:31;;;;;;;0.90;0.77;;;15.30;99.90;;;;;;4957908;28;20484;-80
2022/09/09 01:42:57;;;;;;;1.48;0.88;;;15.20;99.90;;;;;;4959534;28;20635;-80
2022/09/09 01:45:24;;;;;;;1.52;0.63;;;15.20;99.90;;;;;;4954933;28;20023;-79
2022/09/09 01:47:53;;;;;;;2.50;1.23;;;15.20;99.90;;;;;;4961387;28;20019;-80
2022/09/09 01:50:19;;;;;;;2.75;0.82;;;15.20;99.90;;;;;;4961657;28;20511;-80
2022/09/09 01:52:52;;;;;;;2.88;1.00;;;15.20;99.90;;;;;;4965996;28;20476;-80
2022/09/09 01:55:28;;;;;;;1.15;1.05;;;15.20;99.90;;;;;;4963232;28;20027;-79
2022/09/09 01:58:09;;;;;;;3.03;1.17;;;15.10;99.90;;;;;;4959481;28;20050;-80
2022/09/09 02:00:41;;;;;;;1.67;1.13;;;15.10;99.90;;;;;;4956573;28;20016;-81
2022/09/09 02:03:23;;;;;;;3.15;1.13;;;15.10;99.90;;;;;;4950614;28;20166;-79
2022/09/09 02:05:59;;;;;;;3.13;1.50;;;15.00;99.90;;;;;;4968793;28;20039;-80
2022/09/09 02:08:29;;;;;;;1.48;1.38;;;15.00;99.90;;;;;;4967479;28;20023;-80
2022/09/09 02:11:00;;;;;;;3.78;1.58;;;15.00;99.90;;;;;;4964058;28;20065;-78
2022/09/09 02:13:26;;;;;;;3.38;1.88;;;15.00;99.90;;;;;;4963626;28;20353;-80
2022/09/09 02:16:12;;;;;;;3.10;1.23;;;15.00;99.90;;;;;;4961828;28;20133;-80
2022/09/09 02:19:07;;;;;;;1.67;1.50;;;15.10;99.90;;;;;;4973315;28;20440;-78
2022/09/09 02:21:36;;;;;;;4.18;1.25;;;15.10;99.90;;;;;;4957107;28;20034;-80
2022/09/09 02:24:09;;;;;;;4.82;1.63;;;15.10;99.90;;;;;;4966631;28;21168;-80
2022/09/09 02:26:37;;;;;;;;;;;15.10;99.90;;;;;;4964806;28;20452;-81
2022/09/09 02:29:11;;;;;;;3.05;1.52;;;15.10;99.90;;;;;;4968217;28;19911;-80
2022/09/09 02:31:37;;;;;;;1.58;1.20;;;15.10;99.90;;;;;;4966786;28;20027;-80
2022/09/09 02:34:05;;;;;;;2.03;1.83;;;15.10;99.90;;;;;;4976902;28;20113;-80
2022/09/09 02:36:35;;;;;;;4.07;1.50;;;15.00;99.90;;;;;;4962186;28;20023;-81
2022/09/09 02:39:03;;;;;;;1.73;1.30;;;15.10;99.90;;;;;;4962636;28;20119;-81
2022/09/09 02:41:38;;;;;;;5.07;1.70;;;15.10;99.90;;;;;;4968578;28;20463;-80
2022/09/09 02:44:18;;;;;;;1.67;1.52;;;15.10;99.90;;;;;;4968597;28;20188;-76
2022/09/09 02:47:14;;;;;;;2.00;1.10;;;15.20;99.90;;;;;;4967050;28;20047;-78
2022/09/09 02:49:51;;;;;;;7.15;1.80;;;15.10;99.90;;;;;;4964081;28;20031;-78
2022/09/09 02:52:30;;;;;;;2.70;2.05;;;15.20;99.90;;;;;;4965347;28;20452;-76
2022/09/09 02:55:04;;;;;;;3.72;1.60;;;15.20;99.90;;;;;;4970060;28;20034;-78
2022/09/09 02:57:32;;;;;;;2.97;1.60;;;15.20;99.90;;;;;;4973795;28;20055;-78
2022/09/09 03:00:00;;;;;;;4.53;1.75;;;15.20;99.90;;;;;;4963145;28;20030;-78
2022/09/09 03:02:26;;;;;;;8.13;1.48;;;15.20;99.90;;;;;;4963241;28;20037;-78
2022/09/09 03:04:51;;;;;;;6.97;2.75;;;15.20;99.90;;;;;;4964013;28;20027;-82
2022/09/09 03:07:19;;;;;;;6.38;2.22;;;15.20;99.90;;;;;;4971474;28;20030;-75
2022/09/09 03:09:45;;;;;;;2.03;1.42;;;15.20;99.90;;;;;;4959012;28;20039;-79
2022/09/09 03:12:11;;;;;;;2.58;1.63;;;15.30;99.90;;;;;;4963135;28;20035;-79
2022/09/09 03:14:37;;;;;;;7.13;2.10;;;15.30;99.90;;;;;;4965310;28;20030;-79
2022/09/09 03:17:05;;;;;;;3.25;2.00;;;15.30;99.90;;;;;;4969040;28;20070;-78
2022/09/09 03:19:36;;;;;;;3.70;1.83;;;15.40;99.90;;;;;;4960900;28;20032;-78
2022/09/09 03:22:04;;;;;;;4.50;1.90;;;15.40;99.90;;;;;;4963045;28;20034;-78
2022/09/09 03:24:30;;;;;;;6.50;2.20;;;15.40;99.90;;;;;;4962854;28;20023;-77
2022/09/09 03:26:55;;;;;;;6.20;2.05;;;15.40;99.90;;;;;;4966231;28;20035;-78
2022/09/09 03:29:23;;;;;;;2.40;2.10;;;15.40;99.90;;;;;;4959777;28;20050;-78
2022/09/09 03:31:50;;;;;;;1.98;1.60;;;15.40;99.90;;;;;;4962456;28;20130;-80
2022/09/09 03:34:19;;;;;;;5.68;1.90;;;15.40;99.90;;;;;;4966869;28;20023;-78
2022/09/09 03:36:44;;;;;;;4.63;1.70;;;15.40;99.90;;;;;;4970867;28;20023;-78
2022/09/09 03:39:10;;;;;;;5.47;1.77;;;15.50;99.90;;;;;;4963738;28;20037;-78
2022/09/09 03:41:37;;;;;;;3.95;1.80;;;15.50;99.90;;;;;;4960761;28;20038;-81
2022/09/09 03:44:03;;;;;;;2.78;2.00;;;15.50;99.90;;;;;;4964100;28;20026;-81
2022/09/09 03:46:31;;;;;;;5.53;2.15;;;15.50;99.90;;;;;;4959876;28;20175;-75
2022/09/09 03:48:58;;;;;;;4.35;2.35;;;15.50;99.90;;;;;;4958827;28;20038;-80
2022/09/09 03:51:24;;;;;;;3.75;2.20;;;15.50;99.90;;;;;;4958860;28;20019;-77
2022/09/09 03:53:54;;;;;;;3.17;2.83;;;15.50;99.90;;;;;;4961056;28;20338;-77
2022/09/09 03:56:22;;;;;;;3.60;2.30;;;15.50;99.90;;;;;;4959945;28;20754;-78
2022/09/09 03:58:52;;;;;;;3.35;2.40;;;15.60;99.90;;;;;;4963598;28;20046;-80
2022/09/09 04:01:20;;;;;;;4.55;2.20;;;15.50;99.90;;;;;;4960452;28;20083;-79
2022/09/09 04:03:46;;;;;;;2.45;2.13;;;15.50;99.90;;;;;;4962576;28;20030;-79
2022/09/09 04:06:14;;;;;;;5.78;2.53;;;15.60;99.90;;;;;;4961632;28;20395;-80
2022/09/09 04:08:43;;;;;;;3.83;2.08;;;15.60;99.90;;;;;;4959551;28;20357;-79
2022/09/09 04:11:09;;;;;;;5.90;2.15;;;15.60;99.90;;;;;;4963855;28;20117;-73
2022/09/09 04:13:38;;;;;;;2.00;1.63;;;15.70;99.90;;;;;;4963720;28;20054;-79
2022/09/09 04:16:07;;;;;;;5.53;2.10;;;15.70;99.90;;;;;;4959204;28;20023;-77
2022/09/09 04:18:37;;;;;;;6.30;1.90;;;15.70;99.90;;;;;;4959949;28;20927;-78
2022/09/09 04:21:04;;;;;;;1.90;1.70;;;15.80;99.90;;;;;;4961781;28;20038;-78
2022/09/09 04:23:30;;;;;;;2.75;1.58;;;15.80;99.90;;;;;;4962537;28;20037;-77
2022/09/09 04:25:58;;;;;;;6.25;1.60;;;15.80;99.90;;;;;;4961994;28;20035;-77
2022/09/09 04:28:25;;;;;;;4.70;1.55;;;15.80;99.90;;;;;;4961159;28;20027;-79
2022/09/09 04:30:52;;;;;;;2.53;1.58;;;15.90;99.90;;;;;;4958523;28;20134;-78
2022/09/09 04:33:20;;;;;;;2.55;1.45;;;15.90;99.90;;;;;;4960800;28;20059;-81
2022/09/09 04:35:48;;;;;;;5.25;2.10;;;15.90;99.90;;;;;;4962657;28;20055;-79
2022/09/09 04:38:16;;;;;;;7.38;1.70;;;15.90;99.90;;;;;;4960928;28;20524;-81
2022/09/09 04:40:43;;;;;;;5.80;1.50;;;15.90;99.90;;;;;;4970672;28;20027;-79
2022/09/09 04:43:10;;;;;;;3.28;1.63;;;16.00;99.90;;;;;;4965094;28;20102;-79
2022/09/09 04:45:36;;;;;;;5.13;1.65;;;16.00;99.90;;;;;;4960861;28;20029;-81
2022/09/09 04:48:02;;;;;;;13.65;1.85;;;15.90;99.90;;;;;;4964308;28;20046;-82
2022/09/09 04:50:28;;;;;;;3.28;1.55;;;15.90;99.90;;;;;;4957045;28;20065;-78
2022/09/09 04:52:54;;;;;;;9.05;1.60;;;16.00;99.90;;;;;;4962377;28;20054;-80
2022/09/09 04:55:24;;;;;;;12.77;1.83;;;16.10;99.90;;;;;;4960990;28;20034;-79
2022/09/09 04:57:50;;;;;;;6.75;1.85;;;16.10;99.90;;;;;;4962445;28;20114;-80
2022/09/09 05:00:16;;;;;;;6.88;1.60;;;16.20;99.90;;;;;;4964288;28;20126;-80
2022/09/09 05:02:44;;;;;;;5.38;1.45;;;16.20;99.90;;;;;;4959168;28;20022;-80
2022/09/09 05:05:11;;;;;;;6.10;2.22;;;16.20;99.90;;;;;;4961802;28;20038;-78
2022/09/09 05:07:37;;;;;;;5.43;1.70;;;16.20;99.90;;;;;;4959126;28;20456;-81
2022/09/09 05:10:05;;;;;;;4.00;1.67;;;16.20;99.90;;;;;;4962047;28;20035;-80
2022/09/09 05:12:34;;;;;;;6.45;2.03;;;16.20;99.90;;;;;;4960919;28;20043;-81
2022/09/09 05:15:00;;;;;;;5.78;1.30;;;16.20;99.90;;;;;;4965872;28;20030;-80
2022/09/09 05:17:30;;;;;;;5.32;1.80;;;16.30;99.90;;;;;;4957399;28;20092;-79
2022/09/09 05:19:58;;;;;;;7.60;1.92;;;16.20;99.90;;;;;;4960497;28;20027;-80
2022/09/09 05:22:24;;;;;;;2.80;1.67;;;16.30;99.90;;;;;;4959573;28;20034;-78
2022/09/09 05:24:52;;;;;;;8.68;1.63;;;16.30;99.90;;;;;;4953929;28;20035;-77
2022/09/09 05:27:20;;;;;;;7.55;1.77;;;16.30;99.90;;;;;;4959061;28;20038;-80
2022/09/09 05:29:48;;;;;;;8.18;1.65;;;16.40;99.90;;;;;;4956406;28;20066;-80
2022/09/09 05:32:16;;;;;;;7.85;1.83;;;16.40;99.90;;;;;;4960595;28;20102;-79
2022/09/09 05:34:43;;;;;;;5.68;1.83;;;16.40;99.90;;;;;;4960566;28;20448;-79
2022/09/09 05:37:10;;;;;;;10.52;2.03;;;16.40;99.90;;;;;;4960184;28;20345;-79
2022/09/09 05:39:38;;;;;;;11.35;2.67;;;16.40;99.90;;;;;;4959251;28;20055;-80
2022/09/09 05:42:07;;;;;;;11.32;1.83;;;16.40;99.90;;;;;;4959163;28;20027;-79
2022/09/09 05:44:37;;;;;;;5.05;1.60;;;16.40;99.90;;;;;;4960746;28;20511;-79
2022/09/09 05:47:04;;;;;;;8.55;2.03;;;16.50;99.90;;;;;;4960475;28;20451;-80
2022/09/09 05:49:29;;;;;;;4.53;1.63;;;16.50;99.90;;;;;;4956009;28;20090;-81
2022/09/09 05:51:55;;;;;;;7.47;1.55;;;16.60;99.90;;;;;;4956336;28;20027;-77
2022/09/09 05:54:21;;;;;;;6.25;1.95;;;16.60;99.90;;;;;;4961720;28;20376;-82
2022/09/09 05:56:50;;;;;;;4.63;1.90;;;16.70;99.90;;;;;;4958726;28;20027;-80
2022/09/09 05:59:16;;;;;;;10.27;1.77;;;16.70;99.90;;;;;;4968689;28;20061;-81
2022/09/09 06:01:42;;;;;;;6.35;1.92;;;16.80;99.90;;;;;;4957504;28;20134;-82
2022/09/09 06:04:08;;;;;;;4.05;1.80;;;16.90;99.90;;;;;;4964330;28;20027;-82
2022/09/09 06:06:41;;;;;;;4.32;1.55;;;17.00;99.90;;;;;;4961406;28;20050;-82
2022/09/09 06:09:09;;;;;;;2.22;1.27;;;17.10;99.90;;;;;;4958908;28;20031;-81
2022/09/09 06:11:36;;;;;;;6.13;1.75;;;17.10;99.90;;;;;;4957424;28;20043;-80
2022/09/09 06:14:08;;;;;;;5.93;1.77;;;17.10;99.90;;;;;;4955735;28;20117;-81
2022/09/09 06:16:35;;;;;;;5.63;2.03;;;17.20;99.90;;;;;;4959961;28;20416;-79
2022/09/09 06:19:03;;;;;;;6.63;1.85;;;17.30;99.90;;;;;;4957079;28;20118;-80
2022/09/09 06:21:30;;;;;;;8.98;2.05;;;17.30;99.90;;;;;;4956032;28;20032;-82
2022/09/09 06:23:59;;;;;;;8.25;1.83;;;17.30;99.90;;;;;;4960793;28;20603;-76
2022/09/09 06:26:30;;;;;;;7.32;1.70;;;17.40;99.90;;;;;;4958318;28;20039;-81
2022/09/09 06:28:57;;;;;;;9.45;1.98;;;17.50;99.90;;;;;;4960375;28;20470;-81
2022/09/09 06:31:25;;;;;;;7.50;1.73;;;17.50;99.90;;;;;;4960187;28;20401;-84
2022/09/09 06:33:53;;;;;;;13.05;2.22;;;17.40;99.90;;;;;;4959028;28;20015;-80
2022/09/09 06:36:21;;;;;;;9.50;2.00;;;17.40;99.90;;;;;;4957699;28;20035;-78
2022/09/09 06:38:47;;;;;;;9.18;1.70;;;17.50;99.90;;;;;;4958746;28;20024;-77
2022/09/09 06:41:15;;;;;;;7.60;1.83;;;17.40;99.90;;;;;;4962876;28;20091;-81
2022/09/09 06:43:41;;;;;;;5.35;1.70;;;17.50;99.90;;;;;;4962593;28;20130;-83
2022/09/09 06:46:15;;;;;;;6.13;2.00;;;17.50;99.90;;;;;;4987313;28;20090;-83
2022/09/09 06:48:44;;;;;;;6.57;2.30;;;17.50;99.90;;;;;;4990494;28;20027;-80
2022/09/09 06:51:11;;;;;;;12.43;2.22;;;17.60;99.90;;;;;;4987448;28;20022;-81
2022/09/09 06:53:38;;;;;;;4.45;2.05;;;17.50;99.90;;;;;;4992132;28;20046;-81
2022/09/09 06:56:10;;;;;;;6.40;1.67;;;17.50;99.90;;;;;;4995996;28;20034;-80
2022/09/09 06:58:46;;;;;;;12.40;2.00;;;17.60;99.90;;;;;;4998177;28;20030;-81
2022/09/09 07:01:17;;;;;;;11.93;1.98;;;17.70;99.90;;;;;;5000913;28;20030;-80
2022/09/09 07:03:48;;;;;;;5.47;2.10;;;17.80;99.90;;;;;;4990252;28;20023;-76
2022/09/09 07:06:19;;;;;;;4.45;1.90;;;17.90;99.90;;;;;;4991680;28;20474;-82
2022/09/09 07:08:52;;;;;;;9.45;1.75;;;17.90;99.90;;;;;;4986971;28;20030;-79
2022/09/09 07:11:20;;;;;;;11.60;2.00;;;18.00;99.90;;;;;;4989361;28;20040;-81
2022/09/09 07:13:46;;;;;;;5.38;1.75;;;18.00;99.90;;;;;;4989120;28;20423;-79
2022/09/09 07:16:18;;;;;;;9.60;2.13;;;18.10;99.90;;;;;;4984631;28;20018;-78
2022/09/09 07:18:44;;;;;;;8.25;2.13;;;18.10;99.90;;;;;;4985584;28;20032;-85
2022/09/09 07:21:14;;;;;;;13.20;2.22;;;18.00;99.90;;;;;;4986276;28;20026;-76
2022/09/09 07:23:41;;;;;;;6.18;1.73;;;18.20;99.90;;;;;;4983966;28;20054;-81
2022/09/09 07:26:13;;;;;;;6.10;1.83;;;18.20;99.90;;;;;;4987967;28;20026;-83
2022/09/09 07:28:41;;;;;;;4.73;2.00;;;18.30;99.90;;;;;;4988665;28;20034;-81
2022/09/09 07:31:15;;;;;;;9.20;1.90;;;18.40;99.90;;;;;;4990873;28;20621;-82
2022/09/09 07:33:41;;;;;;;9.95;2.17;;;18.50;99.90;;;;;;4984910;28;20460;-89
2022/09/09 07:36:16;;;;;;;5.57;1.45;;;18.50;99.90;;;;;;4982097;28;20034;-80
2022/09/09 07:38:47;;;;;;;6.15;1.67;;;18.60;99.90;;;;;;4982943;28;20031;-86
2022/09/09 07:41:35;;;;;;;11.82;1.73;;;18.50;99.90;;;;;;4982221;28;20038;-84
2022/09/09 07:44:16;;;;;;;7.68;2.38;;;18.60;99.90;;;;;;4986987;28;20022;-85
2022/09/09 07:46:42;;;;;;;9.05;1.60;;;18.70;99.90;;;;;;4986882;28;20442;-87
2022/09/09 07:49:09;;;;;;;3.70;1.60;;;18.80;99.90;;;;;;4986091;28;20061;-78
2022/09/09 07:51:37;;;;;;;12.13;2.35;;;18.50;99.90;;;;;;4980055;28;20102;-84
2022/09/09 07:54:06;;;;;;;7.30;1.90;;;18.70;99.90;;;;;;4988226;28;20026;-77
2022/09/09 07:56:32;;;;;;;7.70;1.90;;;18.80;99.90;;;;;;4985827;28;20042;-81
2022/09/09 07:58:58;;;;;;;4.22;1.85;;;18.90;99.90;;;;;;4986093;28;20033;-81
2022/09/09 08:01:33;;;;;;;4.70;1.50;;;18.90;99.90;;;;;;4986339;28;20014;-81
2022/09/09 08:04:07;;;;;;;5.63;1.88;;;18.90;99.90;;;;;;4985641;28;20057;-82
2022/09/09 08:06:43;;;;;;;13.95;1.80;;;19.10;99.90;;;;;;4961678;28;20041;-84
2022/09/09 08:09:10;;;;;;;2.22;1.27;;;19.30;99.90;;;;;;4987137;28;20112;-82
2022/09/09 08:11:37;;;;;;;12.25;1.92;;;19.50;99.90;;;;;;4985290;28;20138;-81
2022/09/09 08:14:03;;;;;;;7.55;1.70;;;19.80;99.90;;;;;;4987737;28;20109;-82
2022/09/09 08:16:32;;;;;;;4.43;1.17;;;19.70;99.90;;;;;;4982063;28;20084;-80
2022/09/09 08:19:07;;;;;;;9.80;1.80;;;19.80;99.90;;;;;;4983872;28;20218;-81
2022/09/09 08:21:34;;;;;;;4.82;1.70;;;19.90;99.90;;;;;;4982360;28;20145;-86
2022/09/09 08:24:01;;;;;;;6.85;1.73;;;19.70;99.90;;;;;;4980514;28;20026;-82
2022/09/09 08:26:32;;;;;;;5.05;2.00;;;19.80;99.90;;;;;;4980084;28;20062;-79
2022/09/09 08:29:02;;;;;;;4.30;1.75;;;19.60;99.90;;;;;;4982472;28;20015;-84
2022/09/09 08:31:29;;;;;;;9.23;1.58;;;19.80;99.90;;;;;;4985459;28;20105;-85
2022/09/09 08:33:59;;;;;;;9.90;1.55;;;20.00;99.90;;;;;;4982290;28;20137;-83
2022/09/09 08:36:28;;;;;;;6.75;1.48;;;20.20;99.90;;;;;;4982462;28;20076;-84
2022/09/09 08:38:57;;;;;;;6.82;1.23;;;20.40;99.90;;;;;;4984332;28;20082;-84
2022/09/09 08:41:32;;;;;;;5.03;1.35;;;20.60;99.90;;;;;;4984036;28;20117;-85
2022/09/09 08:44:27;;;;;;;5.63;1.70;;;20.50;99.90;;;;;;4988584;28;20026;-80
2022/09/09 08:47:18;;;;;;;8.48;1.60;;;20.20;99.90;;;;;;4984086;28;20025;-83
2022/09/09 08:50:04;;;;;;;12.95;1.80;;;20.90;99.90;;;;;;4981098;28;20027;-82
2022/09/09 08:53:02;;;;;;;5.63;1.35;;;21.00;99.90;;;;;;4989592;28;20349;-82
2022/09/09 08:55:36;;;;;;;6.50;1.40;;;21.10;99.90;;;;;;4978085;28;20101;-83
2022/09/09 08:58:29;;;;;;;11.63;1.60;;;21.20;99.90;;;;;;4986198;28;20033;-81
2022/09/09 09:01:17;;;;;;;5.72;1.48;;;21.10;99.90;;;;;;4984517;28;20027;-85
2022/09/09 09:04:03;;;;;;;6.32;2.42;;;21.20;99.90;;;;;;4986052;28;20050;-82
2022/09/09 09:06:36;;;;;;;5.30;1.50;;;20.80;99.90;;;;;;4985233;28;20094;-81
2022/09/09 09:09:13;;;;;;;10.65;1.60;;;20.60;99.90;;;;;;4987313;28;20019;-82
2022/09/09 09:11:44;;;;;;;10.07;1.88;;;20.40;99.90;;;;;;4985075;28;20037;-82
2022/09/09 09:14:21;;;;;;;5.10;1.38;;;20.10;99.90;;;;;;4983454;28;20073;-85
2022/09/09 09:17:03;;;;;;;5.93;1.35;;;19.90;99.90;;;;;;4987951;28;20022;-82
2022/09/09 09:19:30;;;;;;;10.10;1.55;;;20.00;99.90;;;;;;4988000;28;20424;-80
2022/09/09 09:22:19;;;;;;;4.45;1.40;;;20.20;99.90;;;;;;4987182;28;20383;-79
2022/09/09 09:24:46;;;;;;;8.10;1.80;;;20.20;99.90;;;;;;4983116;28;20049;-78
2022/09/09 09:27:21;;;;;;;6.22;1.60;;;20.70;99.90;;;;;;4984328;28;20054;-80
2022/09/09 09:29:50;;;;;;;5.57;1.40;;;20.80;99.90;;;;;;4981514;28;20051;-82
2022/09/09 09:32:19;;;;;;;10.15;1.98;;;21.70;99.90;;;;;;4983248;28;20041;-81
2022/09/09 09:34:52;;;;;;;6.13;1.75;;;22.10;99.90;;;;;;4981695;28;20050;-78
2022/09/09 09:37:31;;;;;;;8.65;1.77;;;21.40;99.90;;;;;;4964621;28;20460;-79
2022/09/09 09:40:10;;;;;;;5.82;1.60;;;21.30;99.90;;;;;;4976597;28;20039;-85
2022/09/09 09:42:37;;;;;;;7.25;1.67;;;21.80;99.90;;;;;;4959108;28;20090;-84
2022/09/09 09:45:31;;;;;;;7.03;2.00;;;22.10;99.90;;;;;;4962489;28;20102;-79
2022/09/09 09:47:59;;;;;;;4.95;1.30;;;21.90;99.90;;;;;;4966106;28;20037;-85
2022/09/09 09:50:25;;;;;;;7.65;1.30;;;22.20;99.90;;;;;;4960099;28;20028;-77
2022/09/09 09:53:04;;;;;;;3.38;1.33;;;22.70;99.90;;;;;;4958791;28;20702;-79
2022/09/09 09:55:33;;;;;;;4.18;1.40;;;22.60;99.90;;;;;;4960101;28;20073;-76
2022/09/09 09:58:06;;;;;;;4.72;2.00;;;22.40;99.90;;;;;;4963856;28;20045;-77
2022/09/09 10:00:34;;;;;;;4.82;1.65;;;22.70;99.90;;;;;;4957450;28;20078;-84
2022/09/09 10:03:01;;;;;;;4.72;1.42;;;23.20;99.90;;;;;;4959084;28;20016;-78
2022/09/09 10:05:29;;;;;;;8.48;1.60;;;23.30;99.90;;;;;;4963094;28;20499;-77
2022/09/09 10:08:16;;;;;;;7.78;1.33;;;23.50;99.90;;;;;;4959928;28;20066;-81
2022/09/09 10:10:54;;;;;;;5.82;1.60;;;23.20;99.90;;;;;;4960043;28;20051;-76
2022/09/09 10:13:57;;;;;;;6.20;1.27;;;22.60;99.90;;;;;;4964248;28;20065;-81
2022/09/09 10:16:34;;;;;;;7.53;1.57;;;22.10;99.90;;;;;;4963452;28;20035;-85
2022/09/09 10:19:03;;;;;;;3.17;1.40;;;21.60;99.90;;;;;;4963922;28;20059;-78
2022/09/09 10:21:47;;;;;;;2.05;1.10;;;21.70;99.90;;;;;;4960405;28;20042;-79
2022/09/09 10:24:25;;;;;;;5.97;1.58;;;21.40;99.90;;;;;;4962426;28;20053;-79
2022/09/09 10:27:01;;;;;;;4.97;1.50;;;21.40;99.90;;;;;;4966916;28;20093;-81
2022/09/09 10:29:30;;;;;;;6.40;1.60;;;21.40;99.90;;;;;;4962782;28;20035;-75
2022/09/09 10:32:11;;;;;;;6.20;1.58;;;21.10;99.90;;;;;;4960267;28;20089;-77
2022/09/09 10:35:13;;;;;;;3.97;1.20;;;21.00;99.90;;;;;;4968087;28;20097;-81
2022/09/09 10:38:03;;;;;;;4.78;1.15;;;21.20;99.90;;;;;;4966536;28;20027;-84
2022/09/09 10:40:32;;;;;;;3.90;1.10;;;21.20;99.90;;;;;;4965102;28;20476;-83
2022/09/09 10:43:13;;;;;;;3.58;1.08;;;21.20;99.90;;;;;;4965796;28;20349;-79
2022/09/09 10:45:58;;;;;;;7.30;1.40;;;21.20;99.90;;;;;;4967101;28;20046;-83
2022/09/09 10:48:26;;;;;;;4.35;1.13;;;21.20;99.90;;;;;;4968010;28;20054;-84
2022/09/09 10:50:56;;;;;;;4.63;1.00;;;21.20;99.90;;;;;;4967506;28;20029;-82
2022/09/09 10:54:05;;;;;;;6.80;1.33;;;21.10;99.90;;;;;;4959518;28;20061;-83
2022/09/09 10:56:39;;;;;;;6.03;1.60;;;20.90;99.90;;;;;;4964364;28;20073;-80
2022/09/09 10:59:20;;;;;;;4.88;1.63;;;20.70;99.90;;;;;;4964699;28;20023;-78
2022/09/09 11:01:52;;;;;;;2.67;0.98;;;20.80;99.90;;;;;;4966473;28;20105;-83
2022/09/09 11:04:40;;;;;;;5.53;1.05;;;20.50;99.90;;;;;;4968298;28;20102;-85
2022/09/09 11:07:10;;;;;;;3.50;1.00;;;20.70;99.90;;;;;;4981995;28;20034;-80
2022/09/09 11:09:43;;;;;;;7.38;1.35;;;20.70;99.90;;;;;;4963744;28;20031;-80
2022/09/09 11:12:12;;;;;;;;;;;20.90;99.90;;;;;;4964485;28;20050;-82
2022/09/09 11:14:41;;;;;;;8.30;1.20;;;21.10;99.90;;;;;;4968844;28;19918;-85
2022/09/09 11:17:31;;;;;;;8.85;1.27;;;21.30;99.90;;;;;;4966085;28;20041;-79
2022/09/09 11:19:57;;;;;;;6.82;1.50;;;21.60;99.90;;;;;;4963176;28;20050;-77
2022/09/09 11:22:31;;;;;;;7.25;1.27;;;21.60;99.90;;;;;;4965277;28;20029;-79
2022/09/09 11:25:22;;;;;;;5.10;1.33;;;22.00;99.90;;;;;;4966793;28;20031;-79
2022/09/09 11:28:20;;;;;;;10.18;1.67;;;22.00;99.90;;;;;;4967010;28;20031;-81
2022/09/09 11:30:52;;;;;;;6.35;1.60;;;22.00;99.90;;;;;;4967381;28;20436;-82
2022/09/09 11:33:37;;;;;;;3.97;1.15;;;21.80;99.90;;;;;;4969150;28;20432;-82
2022/09/09 11:36:27;;;;;;;3.78;1.33;;;21.90;99.90;;;;;;4960363;28;20059;-81
2022/09/09 11:39:05;;;;;;;3.95;1.20;;;21.60;99.90;;;;;;4964366;28;20455;-86
2022/09/09 11:41:37;;;;;;;6.57;1.33;;;21.60;99.90;;;;;;4960514;28;20063;-80
2022/09/09 11:44:17;;;;;;;5.65;1.55;;;21.20;99.90;;;;;;4962784;28;20016;-81
2022/09/09 11:46:52;;;;;;;6.55;1.55;;;21.20;99.90;;;;;;4961637;28;20028;-79
2022/09/09 11:49:41;;;;;;;3.83;1.20;;;21.30;99.90;;;;;;4963306;28;20023;-82
2022/09/09 11:52:21;;;;;;;3.97;1.27;;;21.10;99.90;;;;;;4959011;28;20033;-79
2022/09/09 11:54:49;;;;;;;6.35;0.90;;;20.90;99.90;;;;;;4961336;28;20073;-76
2022/09/09 11:57:36;;;;;;;4.53;1.35;;;20.60;99.90;;;;;;4962467;28;20019;-80
2022/09/09 12:00:03;;;;;;;5.38;1.15;;;20.40;99.90;;;;;;4959508;28;20027;-81
2022/09/09 12:02:32;;;;;;;2.88;1.10;;;20.10;99.90;;;;;;4961295;28;20030;-82
2022/09/09 12:05:05;;;;;;;5.25;1.15;;;19.90;99.90;;;;;;4964850;28;20089;-74
2022/09/09 12:07:36;;;;;;;;;;;20.00;99.90;;;;;;4965761;28;20061;-80
2022/09/09 12:10:08;;;;;;;3.72;0.98;;;20.20;99.90;;;;;;4965440;28;19997;-81
2022/09/09 12:12:36;;;;;;;9.27;1.50;;;20.50;99.90;;;;;;4962679;28;20490;-81
2022/09/09 12:15:08;;;;;;;3.75;1.30;;;20.80;99.90;;;;;;4963458;28;20031;-76
2022/09/09 12:17:54;;;;;;;8.38;1.20;;;20.70;99.90;;;;;;4960262;28;20030;-78
2022/09/09 12:20:22;;;;;;;3.70;1.25;;;20.40;99.90;;;;;;4966057;28;20054;-77
2022/09/09 12:23:09;;;;;;;9.02;1.27;;;20.20;99.90;;;;;;4961694;28;20051;-88
2022/09/09 12:25:49;;;;;;;9.35;1.52;;;19.80;99.90;;;;;;4965298;28;20034;-84
2022/09/09 12:28:34;;;;;;;7.63;1.80;;;19.80;99.90;;;;;;4966213;28;20050;-82
2022/09/09 12:31:10;;;;;;;4.28;1.58;;;19.80;99.90;;;;;;4964528;28;20030;-83
2022/09/09 12:33:45;;;;;;;4.57;1.20;;;19.80;99.90;;;;;;4962186;28;20031;-78
2022/09/09 12:36:15;;;;;;;8.88;1.25;;;19.70;99.90;;;;;;4964130;28;20349;-86
2022/09/09 12:38:43;;;;;;;4.05;1.70;;;19.40;99.90;;;;;;4967453;28;20031;-79
2022/09/09 12:41:28;;;;;;;3.45;1.40;;;19.50;99.90;;;;;;4963100;28;20031;-77
2022/09/09 12:44:08;;;;;;;4.47;1.60;;;19.40;99.90;;;;;;4966941;28;20163;-82
2022/09/09 12:46:42;;;;;;;5.18;1.45;;;19.20;99.90;;;;;;4964936;28;20037;-80
2022/09/09 12:49:35;;;;;;;6.38;1.88;;;18.90;99.90;;;;;;4963126;28;20058;-81
2022/09/09 12:52:02;;;;;;;;;;;18.70;99.90;;;;;;4975963;28;20543;-77
2022/09/09 12:54:30;;;;;;;9.88;1.60;;;18.40;99.90;;;;;;4974315;28;20033;-76
2022/09/09 12:56:58;;;;;;;10.65;1.95;;;18.30;99.90;;;;;;4960045;28;20027;-85
2022/09/09 12:59:39;;;;;;;4.18;1.67;;;18.00;99.90;;;;;;4961460;28;20046;-77
2022/09/09 13:02:23;;;;;;;6.82;1.80;;;17.80;99.90;;;;;;4959192;28;20072;-80
2022/09/09 13:04:52;;;;;;;5.30;1.52;;;17.50;99.90;;;;;;4963513;28;20050;-76
2022/09/09 13:07:19;;;;;;;6.60;1.45;;;17.80;99.90;;;;;;4960582;28;20051;-76
2022/09/09 13:09:46;;;;;;;7.00;1.80;;;18.00;99.90;;;;;;4959274;28;20027;-80
2022/09/09 13:12:22;;;;;;;4.75;1.38;;;18.50;99.90;;;;;;4965423;28;20341;-77
2022/09/09 13:14:53;;;;;;;3.80;1.70;;;18.90;99.90;;;;;;4957640;28;20027;-80
2022/09/09 13:17:28;;;;;;;5.25;1.83;;;19.20;99.90;;;;;;4960450;28;20030;-76